Time;durP1;ratioP1;P1;durP2;ratioP2;P2;SDS_P1;SDS_P2;PMS_P1;PMS_P2;Temp;Humidity;BMP_temperature;BMP_pressure;BME280_temperature;BME280_humidity;BME280_pressure;Samples;Min_cycle;Max_cycle;Signal;HPM_P1;HPM_P2
2022/08/04 00:01:37;;;;;;;12.27;4.93;;;21.70;99.90;;;;;;4875540;29;20049;-61
2022/08/04 00:04:11;;;;;;;11.52;4.60;;;21.80;99.90;;;;;;4847075;29;20065;-60
2022/08/04 00:07:02;;;;;;;22.80;5.10;;;21.70;99.90;;;;;;4875329;29;20052;-61
2022/08/04 00:09:41;;;;;;;13.45;4.90;;;21.70;99.90;;;;;;4875553;29;20060;-61
2022/08/04 00:12:10;;;;;;;16.67;5.38;;;21.60;99.90;;;;;;4875379;29;20100;-61
2022/08/04 00:14:45;;;;;;;19.75;5.15;;;21.60;99.90;;;;;;4875283;29;20045;-61
2022/08/04 00:17:11;;;;;;;16.50;5.35;;;21.60;99.90;;;;;;4875450;29;20056;-61
2022/08/04 00:19:45;;;;;;;15.68;5.43;;;21.90;99.90;;;;;;4875441;29;20068;-61
2022/08/04 00:22:13;;;;;;;13.90;4.88;;;21.60;99.90;;;;;;4875206;29;20585;-61
2022/08/04 00:24:39;;;;;;;14.60;5.05;;;21.50;99.90;;;;;;4874421;29;20541;-61
2022/08/04 00:27:07;;;;;;;13.52;4.72;;;21.50;99.90;;;;;;4875242;29;20040;-61
2022/08/04 00:29:34;;;;;;;15.45;4.65;;;21.40;99.90;;;;;;4938429;28;20062;-60
2022/08/04 00:32:01;;;;;;;14.85;4.82;;;21.30;99.90;;;;;;4955004;28;20046;-60
2022/08/04 00:34:30;;;;;;;17.40;5.47;;;21.50;99.90;;;;;;4972350;28;20046;-60
2022/08/04 00:36:59;;;;;;;15.15;4.88;;;21.50;99.90;;;;;;4972696;28;20039;-60
2022/08/04 00:39:26;;;;;;;12.55;4.88;;;21.50;99.90;;;;;;4972003;28;20411;-60
2022/08/04 00:42:25;;;;;;;12.90;5.07;;;21.40;99.90;;;;;;4972334;28;20058;-61
2022/08/04 00:45:02;;;;;;;16.30;5.00;;;21.40;99.90;;;;;;4972662;28;20047;-62
2022/08/04 00:47:47;;;;;;;17.70;5.30;;;22.10;99.90;;;;;;4972618;28;20082;-62
2022/08/04 00:50:21;;;;;;;15.38;5.25;;;21.40;99.90;;;;;;4972112;28;20047;-61
2022/08/04 00:52:53;;;;;;;16.05;4.85;;;21.20;99.90;;;;;;4972492;28;20054;-60
2022/08/04 00:55:49;;;;;;;12.90;4.90;;;22.20;99.90;;;;;;4973825;28;20074;-61
2022/08/04 00:58:38;;;;;;;17.13;4.90;;;21.30;99.90;;;;;;4976749;28;20362;-61
2022/08/04 01:01:06;;;;;;;12.77;5.43;;;21.20;99.90;;;;;;5122087;22;20104;-65
2022/08/04 01:03:40;;;;;;;16.77;4.80;;;20.00;99.90;;;;;;5039731;28;20041;-66
2022/08/04 01:07:04;;;;;;;11.27;4.97;;;21.20;99.90;;;;;;5036859;28;20037;-66
2022/08/04 01:09:51;;;;;;;10.30;5.00;;;21.20;99.90;;;;;;4983614;28;20107;-66
2022/08/04 01:12:29;;;;;;;12.55;5.60;;;21.20;99.90;;;;;;5036706;28;20048;-66
2022/08/04 01:15:16;;;;;;;13.73;4.90;;;21.10;99.90;;;;;;5036547;28;20038;-66
2022/08/04 01:18:00;;;;;;;12.50;4.88;;;21.20;99.90;;;;;;5036657;28;20091;-66
2022/08/04 01:20:30;;;;;;;12.30;4.93;;;21.20;99.90;;;;;;5016535;28;20552;-66
2022/08/04 01:23:15;;;;;;;15.98;5.68;;;21.10;99.90;;;;;;4999108;28;20504;-66
2022/08/04 01:26:10;;;;;;;16.60;5.73;;;21.10;99.90;;;;;;5016402;28;20489;-66
2022/08/04 01:29:00;;;;;;;19.42;5.85;;;21.10;99.90;;;;;;5016565;28;20374;-66
2022/08/04 01:31:47;;;;;;;16.05;5.57;;;21.10;99.90;;;;;;5015185;28;20131;-66
2022/08/04 01:34:14;;;;;;;23.00;5.78;;;21.10;99.90;;;;;;5016257;28;20077;-66
2022/08/04 01:36:45;;;;;;;20.25;5.60;;;21.00;99.90;;;;;;5045454;28;20052;-66
2022/08/04 01:42:03;;;;;;;14.02;6.10;;;20.90;99.90;;;;;;5055953;28;20060;-66
2022/08/04 01:44:30;;;;;;;10.90;5.55;;;20.90;99.90;;;;;;5055322;28;20053;-66
2022/08/04 01:46:56;;;;;;;11.95;5.30;;;20.80;99.90;;;;;;5055981;28;20055;-66
2022/08/04 01:49:31;;;;;;;16.17;6.07;;;20.90;99.90;;;;;;5055938;28;20037;-66
2022/08/04 01:51:58;;;;;;;16.57;6.20;;;20.90;99.90;;;;;;5055780;28;20041;-66
2022/08/04 01:54:25;;;;;;;14.18;5.55;;;20.80;99.90;;;;;;5055961;28;20060;-67
2022/08/04 01:56:52;;;;;;;13.00;5.72;;;20.80;99.90;;;;;;5055503;28;20116;-66
2022/08/04 01:59:19;;;;;;;19.20;5.88;;;20.80;99.90;;;;;;5055861;28;20037;-66
2022/08/04 02:01:45;;;;;;;14.98;6.28;;;20.80;99.90;;;;;;5055308;28;20492;-66
2022/08/04 02:04:21;;;;;;;11.27;5.72;;;20.80;99.90;;;;;;5037852;28;20408;-66
2022/08/04 02:06:55;;;;;;;15.48;5.53;;;20.70;99.90;;;;;;5054292;28;20088;-61
2022/08/04 02:09:28;;;;;;;;;;;20.70;99.90;;;;;;5053142;28;20111;-62
2022/08/04 02:12:24;;;;;;;16.23;5.72;;;20.60;99.90;;;;;;5035349;28;19975;-62
2022/08/04 02:14:58;;;;;;;17.67;6.03;;;20.40;99.90;;;;;;5035654;28;20401;-62
2022/08/04 02:17:42;;;;;;;17.57;5.80;;;20.40;99.90;;;;;;5035388;28;20392;-61
2022/08/04 02:20:15;;;;;;;16.30;5.75;;;20.60;99.90;;;;;;5035530;28;20738;-62
2022/08/04 02:22:58;;;;;;;14.82;5.63;;;20.60;99.90;;;;;;5035210;28;20503;-62
2022/08/04 02:25:26;;;;;;;19.27;5.88;;;20.60;99.90;;;;;;5035099;28;20570;-62
2022/08/04 02:28:22;;;;;;;13.05;5.85;;;20.60;99.90;;;;;;5035145;28;20037;-62
2022/08/04 02:31:00;;;;;;;15.55;5.85;;;20.60;99.90;;;;;;5035238;28;20044;-62
2022/08/04 02:33:38;;;;;;;17.30;6.05;;;20.20;99.90;;;;;;5035054;28;20513;-62
2022/08/04 02:36:05;;;;;;;11.98;5.28;;;20.50;99.90;;;;;;5035024;28;20076;-61
2022/08/04 02:38:53;;;;;;;14.15;6.00;;;20.50;99.90;;;;;;5035044;28;20068;-61
2022/08/04 02:41:22;;;;;;;16.67;5.60;;;20.50;99.90;;;;;;5034782;28;20080;-61
2022/08/04 02:43:48;;;;;;;18.05;6.07;;;20.50;99.90;;;;;;5034832;28;20069;-61
2022/08/04 02:46:19;;;;;;;14.85;5.95;;;20.50;99.90;;;;;;5034887;28;20041;-66
2022/08/04 02:48:46;;;;;;;15.52;5.93;;;20.50;99.90;;;;;;5034518;28;20042;-66
2022/08/04 02:51:14;;;;;;;15.57;5.50;;;20.40;99.90;;;;;;5034733;28;20042;-66
2022/08/04 02:53:42;;;;;;;15.82;6.13;;;20.40;99.90;;;;;;5034464;28;20041;-66
2022/08/04 02:56:10;;;;;;;16.33;5.85;;;20.40;99.90;;;;;;5034663;28;20044;-66
2022/08/04 02:58:37;;;;;;;19.75;6.07;;;20.40;99.90;;;;;;5034499;28;20096;-66
2022/08/04 03:01:03;;;;;;;13.63;5.60;;;20.40;99.90;;;;;;5034148;28;20060;-65
2022/08/04 03:04:13;;;;;;;14.82;5.85;;;20.40;99.90;;;;;;5034380;28;20096;-66
2022/08/04 03:06:47;;;;;;;20.23;6.22;;;20.40;99.90;;;;;;5018345;28;20089;-66
2022/08/04 03:09:37;;;;;;;15.02;5.60;;;20.70;99.90;;;;;;5034411;28;20041;-66
2022/08/04 03:12:38;;;;;;;11.55;5.75;;;20.30;99.90;;;;;;5033989;28;20072;-66
2022/08/04 03:15:39;;;;;;;11.60;5.43;;;20.30;99.90;;;;;;5034308;28;20080;-66
2022/08/04 03:18:22;;;;;;;15.60;5.47;;;20.30;99.90;;;;;;5033700;28;20053;-66
2022/08/04 03:21:09;;;;;;;15.98;6.07;;;20.30;99.90;;;;;;5034347;28;20393;-66
2022/08/04 03:24:11;;;;;;;15.10;5.63;;;20.20;99.90;;;;;;5034026;28;20038;-66
2022/08/04 03:26:46;;;;;;;18.85;5.97;;;20.60;99.90;;;;;;5033734;28;20081;-66
2022/08/04 03:29:21;;;;;;;15.50;6.00;;;20.30;99.90;;;;;;5034167;28;20045;-66
2022/08/04 03:32:18;;;;;;;17.52;5.95;;;20.20;99.90;;;;;;5033653;28;20124;-66
2022/08/04 03:35:10;;;;;;;13.02;5.38;;;20.20;99.90;;;;;;5033787;28;20045;-66
2022/08/04 03:37:57;;;;;;;13.30;5.45;;;20.20;99.90;;;;;;5034010;28;20416;-65
2022/08/04 03:40:32;;;;;;;16.77;5.80;;;20.00;99.90;;;;;;5033797;28;20068;-66
2022/08/04 03:43:16;;;;;;;17.80;5.78;;;20.20;99.90;;;;;;5033705;28;20052;-65
2022/08/04 03:46:01;;;;;;;12.85;5.25;;;20.20;99.90;;;;;;5033603;28;20423;-62
2022/08/04 03:48:45;;;;;;;18.10;5.55;;;20.20;99.90;;;;;;5033690;28;20129;-62
2022/08/04 03:54:59;;;;;;;15.18;5.47;;;20.20;99.90;;;;;;5033859;28;20179;-62
2022/08/04 03:57:44;;;;;;;14.02;5.88;;;20.20;99.90;;;;;;5033533;28;20048;-61
2022/08/04 04:00:16;;;;;;;23.60;5.63;;;20.20;99.90;;;;;;5033569;28;20107;-62
2022/08/04 04:02:51;;;;;;;16.00;5.55;;;20.10;99.90;;;;;;5033229;28;20050;-62
2022/08/04 04:05:54;;;;;;;11.60;5.10;;;20.10;99.90;;;;;;5033451;28;20049;-61
2022/08/04 04:08:39;;;;;;;17.13;5.80;;;20.10;99.90;;;;;;5015568;28;20083;-65
2022/08/04 04:11:21;;;;;;;17.90;5.55;;;20.10;99.90;;;;;;5033486;28;20126;-66
2022/08/04 04:14:04;;;;;;;20.25;5.80;;;20.20;99.90;;;;;;5033284;28;20135;-66
2022/08/04 04:16:44;;;;;;;16.63;5.80;;;20.20;99.90;;;;;;5033182;28;20037;-66
2022/08/04 04:19:25;;;;;;;14.57;5.20;;;20.20;99.90;;;;;;5033168;28;20063;-65
2022/08/04 04:22:01;;;;;;;17.77;5.55;;;20.20;99.90;;;;;;5033067;28;20053;-65
2022/08/04 04:24:55;;;;;;;15.23;5.60;;;20.20;99.90;;;;;;5033424;28;20120;-66
2022/08/04 04:27:35;;;;;;;14.75;5.32;;;20.30;99.90;;;;;;5033193;28;20493;-65
2022/08/04 04:30:07;;;;;;;15.98;5.22;;;20.30;99.90;;;;;;5016571;28;20049;-60
2022/08/04 04:33:09;;;;;;;17.27;5.65;;;20.30;99.90;;;;;;5037215;28;20103;-61
2022/08/04 04:36:02;;;;;;;19.00;5.15;;;20.40;99.90;;;;;;5037444;28;20120;-61
2022/08/04 04:39:00;;;;;;;17.67;5.40;;;20.50;99.90;;;;;;5037164;28;20044;-61
2022/08/04 04:41:51;;;;;;;17.42;5.82;;;20.20;99.90;;;;;;4993191;28;20050;-61
2022/08/04 04:44:31;;;;;;;12.85;5.40;;;20.50;99.90;;;;;;5037043;28;20120;-61
2022/08/04 04:47:03;;;;;;;18.15;5.53;;;20.60;99.90;;;;;;5036773;28;20041;-65
2022/08/04 04:49:35;;;;;;;14.48;5.28;;;20.10;99.90;;;;;;5036899;28;20041;-65
2022/08/04 04:52:25;;;;;;;14.32;4.97;;;20.30;99.90;;;;;;5036685;28;20068;-65
2022/08/04 04:55:39;;;;;;;15.88;5.00;;;20.90;99.90;;;;;;5037027;28;20056;-65
2022/08/04 04:58:11;;;;;;;16.33;5.30;;;22.30;99.90;;;;;;5030063;28;20049;-65
2022/08/04 05:00:46;;;;;;;13.00;4.80;;;21.60;99.90;;;;;;5036879;28;20096;-65
2022/08/04 05:03:35;;;;;;;19.17;4.85;;;22.40;99.90;;;;;;5036490;28;20083;-65
2022/08/04 05:06:27;;;;;;;13.73;5.10;;;22.90;99.90;;;;;;5036763;28;20041;-65
2022/08/04 05:09:07;;;;;;;13.35;4.82;;;23.30;99.90;;;;;;5036857;28;20120;-65
2022/08/04 05:11:59;;;;;;;16.13;4.93;;;23.50;99.90;;;;;;5036577;28;20440;-65
2022/08/04 05:14:33;;;;;;;16.23;4.80;;;23.60;99.90;;;;;;5036471;28;20046;-61
2022/08/04 05:17:14;;;;;;;17.27;4.32;;;23.60;99.90;;;;;;5036319;28;20493;-60
2022/08/04 05:19:57;;;;;;;17.23;5.22;;;23.60;99.90;;;;;;5018602;28;20127;-61
2022/08/04 05:22:28;;;;;;;15.32;4.72;;;23.60;99.90;;;;;;5036441;28;20261;-61
2022/08/04 05:25:06;;;;;;;15.30;4.32;;;23.70;99.90;;;;;;5036313;28;20377;-61
2022/08/04 05:27:39;;;;;;;19.65;4.55;;;24.10;99.90;;;;;;5036112;28;20051;-61
2022/08/04 05:30:06;;;;;;;22.65;4.75;;;24.80;99.90;;;;;;5018287;28;20172;-61
2022/08/04 05:32:39;;;;;;;11.10;4.13;;;24.90;99.90;;;;;;5036177;28;20087;-61
2022/08/04 05:35:10;;;;;;;14.88;4.30;;;25.30;99.90;;;;;;5036085;28;20396;-61
2022/08/04 05:37:39;;;;;;;21.33;4.60;;;25.60;99.90;;;;;;5018458;28;20113;-61
2022/08/04 05:40:07;;;;;;;17.65;4.80;;;25.90;99.90;;;;;;5035881;28;20128;-61
2022/08/04 05:42:36;;;;;;;20.50;4.95;;;26.00;99.90;;;;;;5035752;28;20051;-61
2022/08/04 05:45:04;;;;;;;15.60;4.38;;;25.90;99.90;;;;;;5035789;28;20042;-61
2022/08/04 05:47:31;;;;;;;15.90;4.43;;;25.90;99.90;;;;;;5035811;28;20124;-61
2022/08/04 05:49:58;;;;;;;18.08;4.50;;;25.90;99.90;;;;;;5035717;28;20073;-61
2022/08/04 05:52:25;;;;;;;15.68;4.63;;;26.00;99.90;;;;;;5035654;28;20045;-61
2022/08/04 05:54:51;;;;;;;15.57;4.40;;;26.50;99.90;;;;;;5035971;28;20112;-61
2022/08/04 05:57:18;;;;;;;20.55;5.07;;;26.50;99.90;;;;;;5035559;28;20060;-61
2022/08/04 05:59:45;;;;;;;17.60;4.88;;;27.30;99.90;;;;;;5035588;28;20041;-61
2022/08/04 06:02:13;;;;;;;17.02;5.07;;;28.00;99.90;;;;;;5035289;28;20057;-61
2022/08/04 06:04:40;;;;;;;14.35;4.60;;;28.30;99.90;;;;;;5035744;28;20049;-61
2022/08/04 06:07:07;;;;;;;15.85;4.93;;;27.50;99.90;;;;;;5035259;28;20037;-61
2022/08/04 06:09:33;;;;;;;19.48;4.95;;;28.20;99.90;;;;;;5035333;28;20504;-61
2022/08/04 06:12:03;;;;;;;13.85;4.55;;;28.40;99.90;;;;;;5035298;28;20088;-61
2022/08/04 06:14:42;;;;;;;14.82;4.80;;;29.10;99.90;;;;;;5035528;28;20046;-61
2022/08/04 06:17:10;;;;;;;14.38;4.75;;;28.90;99.90;;;;;;5035302;28;20030;-61
2022/08/04 06:19:39;;;;;;;19.35;5.00;;;28.80;98.10;;;;;;5034882;28;20045;-61
2022/08/04 06:22:08;;;;;;;14.05;4.38;;;28.50;98.50;;;;;;5035223;28;20048;-61
2022/08/04 06:24:36;;;;;;;13.32;4.50;;;28.30;98.70;;;;;;5017666;28;20441;-61
2022/08/04 06:27:03;;;;;;;16.05;4.85;;;28.40;98.80;;;;;;5035032;28;20049;-61
2022/08/04 06:29:39;;;;;;;16.30;4.72;;;28.50;98.70;;;;;;5034981;28;20476;-61
2022/08/04 06:32:23;;;;;;;13.88;4.50;;;28.40;99.90;;;;;;5034899;28;20040;-61
2022/08/04 06:35:03;;;;;;;15.93;4.35;;;28.40;98.50;;;;;;5034951;28;20492;-61
2022/08/04 06:37:29;;;;;;;17.42;4.43;;;29.00;97.70;;;;;;5034909;28;20044;-62
2022/08/04 06:39:56;;;;;;;10.45;3.88;;;29.80;95.50;;;;;;5034837;28;20041;-62
2022/08/04 06:42:24;;;;;;;13.65;4.38;;;30.50;93.20;;;;;;5035006;28;20113;-62
2022/08/04 06:44:54;;;;;;;10.20;3.97;;;30.90;91.50;;;;;;5034964;28;20042;-61
2022/08/04 06:47:21;;;;;;;18.67;4.63;;;30.90;90.30;;;;;;5034891;28;20057;-62
2022/08/04 06:49:50;;;;;;;14.05;4.18;;;30.80;89.80;;;;;;5034714;28;20045;-62
2022/08/04 06:52:17;;;;;;;18.60;5.40;;;32.60;91.50;;;;;;5034118;28;20422;-62
2022/08/04 06:54:53;;;;;;;15.55;4.88;;;31.70;84.40;;;;;;5034680;28;20045;-62
2022/08/04 06:57:25;;;;;;;17.10;4.50;;;32.40;75.50;;;;;;5016984;28;20061;-62
2022/08/04 06:59:56;;;;;;;18.83;4.85;;;32.60;75.80;;;;;;5034545;28;20046;-62
2022/08/04 07:02:26;;;;;;;15.02;4.60;;;32.70;75.00;;;;;;5034266;28;20492;-62
2022/08/04 07:04:52;;;;;;;16.42;4.90;;;33.10;71.20;;;;;;5034492;28;20033;-62
2022/08/04 07:07:18;;;;;;;13.82;4.70;;;33.20;70.90;;;;;;5034129;28;20044;-62
2022/08/04 07:09:44;;;;;;;12.07;4.88;;;33.20;69.30;;;;;;5000200;28;20505;-62
2022/08/04 07:12:10;;;;;;;15.15;5.00;;;31.30;72.80;;;;;;5034499;28;20060;-61
2022/08/04 07:14:36;;;;;;;14.63;4.97;;;32.60;69.20;;;;;;5034187;28;20049;-62
2022/08/04 07:17:06;;;;;;;12.38;4.80;;;32.20;70.20;;;;;;5034280;28;20030;-62
2022/08/04 07:19:34;;;;;;;18.50;5.30;;;31.90;71.40;;;;;;5033995;28;20496;-62
2022/08/04 07:22:01;;;;;;;13.95;5.43;;;31.40;72.90;;;;;;5033956;28;20045;-62
2022/08/04 07:24:34;;;;;;;13.57;4.90;;;31.00;74.50;;;;;;5034421;28;20060;-62
2022/08/04 07:27:01;;;;;;;16.23;5.40;;;30.70;75.80;;;;;;5016330;28;20515;-62
2022/08/04 07:29:27;;;;;;;14.35;5.30;;;30.60;76.40;;;;;;5016224;28;20048;-62
2022/08/04 07:31:55;;;;;;;11.95;4.75;;;30.80;75.80;;;;;;5033662;28;20469;-62
2022/08/04 07:34:21;;;;;;;16.27;5.22;;;30.80;76.50;;;;;;5033932;28;20046;-62
2022/08/04 07:36:49;;;;;;;12.98;5.03;;;30.90;76.60;;;;;;5034033;28;20116;-62
2022/08/04 07:39:14;;;;;;;17.45;5.55;;;31.00;80.60;;;;;;5033664;28;20042;-62
2022/08/04 07:41:42;;;;;;;16.40;5.40;;;31.20;76.50;;;;;;5030332;28;20083;-62
2022/08/04 07:44:09;;;;;;;11.23;4.63;;;31.20;76.00;;;;;;5032140;28;20076;-62
2022/08/04 07:46:36;;;;;;;14.90;5.30;;;31.20;76.40;;;;;;5032787;28;20049;-62
2022/08/04 07:49:02;;;;;;;21.73;4.80;;;31.20;77.30;;;;;;5032203;28;20091;-62
2022/08/04 07:51:30;;;;;;;10.82;4.88;;;31.10;77.50;;;;;;5014951;28;20358;-62
2022/08/04 07:53:56;;;;;;;12.18;4.93;;;30.90;77.70;;;;;;5032300;28;20493;-62
2022/08/04 07:56:22;;;;;;;16.88;4.90;;;30.70;78.00;;;;;;5032517;28;20104;-62
2022/08/04 07:58:48;;;;;;;14.05;5.10;;;30.70;78.70;;;;;;5033007;28;20512;-62
2022/08/04 08:01:14;;;;;;;16.13;5.05;;;30.60;79.00;;;;;;5025755;28;20041;-62
2022/08/04 08:03:40;;;;;;;11.60;4.55;;;30.50;78.90;;;;;;5014355;28;20049;-62
2022/08/04 08:06:06;;;;;;;14.55;5.03;;;30.40;78.70;;;;;;5031723;28;20093;-62
2022/08/04 08:08:32;;;;;;;18.98;5.15;;;30.40;79.30;;;;;;5032434;28;20551;-62
2022/08/04 08:10:58;;;;;;;12.70;4.65;;;30.30;79.60;;;;;;5031909;28;20164;-62
2022/08/04 08:13:24;;;;;;;13.15;4.90;;;30.30;80.50;;;;;;5014701;28;20489;-62
2022/08/04 08:15:51;;;;;;;15.88;4.70;;;30.20;80.90;;;;;;5032233;28;20045;-62
2022/08/04 08:18:17;;;;;;;13.00;4.38;;;30.10;81.00;;;;;;5032130;28;20116;-61
2022/08/04 08:20:44;;;;;;;14.60;5.07;;;30.00;81.60;;;;;;5032589;28;20112;-62
2022/08/04 08:23:10;;;;;;;17.58;5.05;;;29.90;81.70;;;;;;5032040;28;20116;-62
2022/08/04 08:25:36;;;;;;;22.80;5.45;;;29.90;82.70;;;;;;5032280;28;20121;-62
2022/08/04 08:28:03;;;;;;;18.05;4.85;;;29.80;83.30;;;;;;5031610;28;20038;-62
2022/08/04 08:30:30;;;;;;;15.85;4.93;;;29.70;84.00;;;;;;5032484;28;20038;-62
2022/08/04 08:32:55;;;;;;;13.25;4.85;;;29.60;84.50;;;;;;5031910;28;20034;-62
2022/08/04 08:35:23;;;;;;;15.18;4.90;;;29.60;86.00;;;;;;5032166;28;20095;-62
2022/08/04 08:37:57;;;;;;;23.15;4.80;;;29.50;86.90;;;;;;5032325;28;20036;-62
2022/08/04 08:40:47;;;;;;;14.77;5.30;;;29.60;88.50;;;;;;5032313;28;20091;-62
2022/08/04 08:43:23;;;;;;;16.42;4.72;;;29.80;89.80;;;;;;5031795;28;20049;-62
2022/08/04 08:45:55;;;;;;;12.23;4.10;;;30.10;89.10;;;;;;5032257;28;20495;-62
2022/08/04 08:48:47;;;;;;;12.02;4.13;;;30.20;86.20;;;;;;5032091;28;20045;-62
2022/08/04 08:51:48;;;;;;;13.60;3.92;;;30.60;84.40;;;;;;5031829;28;20473;-62
2022/08/04 08:54:42;;;;;;;13.95;4.00;;;30.90;83.60;;;;;;4998404;28;20072;-62
2022/08/04 08:58:01;;;;;;;12.57;4.05;;;31.20;81.20;;;;;;5031513;28;20103;-62
2022/08/04 09:00:52;;;;;;;11.20;3.70;;;32.20;82.80;;;;;;4992554;28;20499;-62
2022/08/04 09:03:45;;;;;;;16.10;4.10;;;31.70;78.60;;;;;;5031785;28;20440;-62
2022/08/04 09:06:49;;;;;;;9.70;3.38;;;31.80;77.40;;;;;;5031534;28;20112;-63
2022/08/04 09:09:21;;;;;;;14.02;4.18;;;31.80;78.50;;;;;;5019340;28;20053;-62
2022/08/04 09:12:12;;;;;;;11.88;3.88;;;31.90;78.80;;;;;;5031064;28;20042;-63
2022/08/04 09:14:46;;;;;;;12.73;3.90;;;32.00;79.20;;;;;;5032362;28;20397;-65
2022/08/04 09:17:32;;;;;;;12.73;3.78;;;32.10;78.50;;;;;;5035764;28;20083;-65
2022/08/04 09:20:08;;;;;;;11.02;3.22;;;32.20;78.80;;;;;;5036464;28;20037;-65
2022/08/04 09:23:14;;;;;;;8.60;3.00;;;32.20;75.90;;;;;;5036491;28;20053;-66
2022/08/04 09:25:55;;;;;;;9.98;3.00;;;32.10;73.60;;;;;;5035586;28;20052;-66
2022/08/04 09:28:26;;;;;;;14.55;3.45;;;32.00;74.60;;;;;;5036541;28;20049;-66
2022/08/04 09:30:58;;;;;;;11.63;3.47;;;32.00;73.10;;;;;;5036354;28;20133;-66
2022/08/04 09:33:36;;;;;;;18.13;3.55;;;31.90;71.90;;;;;;5036037;28;20052;-66
2022/08/04 09:36:38;;;;;;;14.18;3.67;;;32.00;71.20;;;;;;5036155;28;20116;-66
2022/08/04 09:39:26;;;;;;;14.18;3.72;;;32.00;70.10;;;;;;5036062;28;20076;-66
2022/08/04 09:42:02;;;;;;;10.63;3.53;;;32.00;69.50;;;;;;5035909;28;20045;-66
2022/08/04 09:44:44;;;;;;;11.10;3.22;;;31.90;70.70;;;;;;5036220;28;20034;-65
2022/08/04 09:47:12;;;;;;;15.23;3.58;;;31.80;71.30;;;;;;5035826;28;20033;-65
2022/08/04 09:50:03;;;;;;;11.45;3.30;;;31.90;74.90;;;;;;5036202;28;20076;-66
2022/08/04 09:52:47;;;;;;;15.70;3.58;;;31.90;71.40;;;;;;5036191;28;20188;-66
2022/08/04 09:55:55;;;;;;;15.10;3.30;;;32.00;72.50;;;;;;5035761;28;20041;-66
2022/08/04 09:58:38;;;;;;;8.57;3.17;;;32.00;70.20;;;;;;5025099;28;20108;-66
2022/08/04 10:01:09;;;;;;;17.25;3.20;;;32.00;70.70;;;;;;5036007;28;20208;-66
2022/08/04 10:03:39;;;;;;;12.75;3.45;;;32.10;69.70;;;;;;5035677;28;20053;-66
2022/08/04 10:06:42;;;;;;;8.63;3.58;;;32.20;69.70;;;;;;5035622;28;20414;-66
2022/08/04 10:09:26;;;;;;;11.40;3.40;;;32.20;69.10;;;;;;5035540;28;20045;-66
2022/08/04 10:12:00;;;;;;;10.63;3.33;;;32.20;68.40;;;;;;5035347;28;20547;-66
2022/08/04 10:14:47;;;;;;;13.93;3.60;;;32.10;69.60;;;;;;5035356;28;20037;-66
2022/08/04 10:17:31;;;;;;;10.15;3.42;;;32.00;69.30;;;;;;5035276;28;20107;-67
2022/08/04 10:20:18;;;;;;;11.77;3.45;;;31.90;69.60;;;;;;5034737;28;20049;-66
2022/08/04 10:23:04;;;;;;;14.77;4.35;;;31.90;70.10;;;;;;5035318;28;20037;-67
2022/08/04 10:25:40;;;;;;;8.50;3.30;;;31.90;69.90;;;;;;5035363;28;20037;-66
2022/08/04 10:28:12;;;;;;;11.40;3.40;;;32.00;69.90;;;;;;5032724;28;20094;-66
2022/08/04 10:30:44;;;;;;;13.02;3.38;;;32.10;70.70;;;;;;5035019;28;20068;-66
2022/08/04 10:33:23;;;;;;;12.88;3.28;;;32.20;70.60;;;;;;5035336;28;20041;-66
2022/08/04 10:36:07;;;;;;;17.23;3.35;;;32.20;70.30;;;;;;5017294;28;20044;-63
2022/08/04 10:38:59;;;;;;;11.10;4.07;;;32.20;69.90;;;;;;5035267;28;20037;-63
2022/08/04 10:41:28;;;;;;;10.50;3.67;;;32.10;70.50;;;;;;5034831;28;20046;-63
2022/08/04 10:44:22;;;;;;;10.10;3.40;;;31.90;70.20;;;;;;5034924;28;20095;-64
2022/08/04 10:46:54;;;;;;;13.93;3.60;;;31.90;72.00;;;;;;5035209;28;20048;-63
2022/08/04 10:49:26;;;;;;;9.10;3.50;;;32.00;71.70;;;;;;5035024;28;20075;-63
2022/08/04 10:52:07;;;;;;;21.20;3.90;;;32.10;72.00;;;;;;5030029;28;20389;-63
2022/08/04 10:54:51;;;;;;;14.93;3.70;;;32.20;72.60;;;;;;5015741;28;20049;-63
2022/08/04 10:57:24;;;;;;;9.35;3.80;;;32.40;72.40;;;;;;4996628;28;20371;-63
2022/08/04 11:00:25;;;;;;;12.43;3.67;;;32.50;72.90;;;;;;5030163;28;20053;-63
2022/08/04 11:03:16;;;;;;;11.35;3.70;;;32.50;73.50;;;;;;5025565;28;20049;-63
2022/08/04 11:05:48;;;;;;;13.70;4.00;;;32.40;73.10;;;;;;5020837;28;20033;-64
2022/08/04 11:08:27;;;;;;;10.70;4.07;;;32.40;73.00;;;;;;5015891;28;20088;-64
2022/08/04 11:11:11;;;;;;;8.20;3.42;;;32.30;73.20;;;;;;5033569;28;20087;-64
2022/08/04 11:13:41;;;;;;;;;;;32.40;75.50;;;;;;5033887;28;20056;-64
2022/08/04 11:16:16;;;;;;;8.55;3.47;;;32.50;76.30;;;;;;5033621;28;19917;-63
2022/08/04 11:19:03;;;;;;;12.13;4.05;;;32.60;76.70;;;;;;5033319;28;20069;-64
2022/08/04 11:21:32;;;;;;;18.27;4.13;;;32.50;76.20;;;;;;5032779;28;20489;-65
2022/08/04 11:24:14;;;;;;;12.85;3.92;;;32.30;76.70;;;;;;5033469;28;20053;-64
2022/08/04 11:26:47;;;;;;;13.40;3.35;;;32.10;77.60;;;;;;5017430;28;20536;-64
2022/08/04 11:29:48;;;;;;;8.05;3.50;;;32.00;78.40;;;;;;5033298;28;20493;-64
2022/08/04 11:32:22;;;;;;;17.98;3.90;;;31.90;78.20;;;;;;5032759;28;20045;-64
2022/08/04 11:34:56;;;;;;;13.35;4.45;;;31.80;78.70;;;;;;5033184;28;20346;-64
2022/08/04 11:38:01;;;;;;;8.00;3.58;;;31.70;77.80;;;;;;5032794;28;20091;-64
2022/08/04 11:40:40;;;;;;;6.90;3.35;;;31.50;77.30;;;;;;5026039;28;20065;-64
2022/08/04 11:43:20;;;;;;;9.43;2.97;;;31.40;76.80;;;;;;5033732;28;20033;-64
2022/08/04 11:45:59;;;;;;;9.50;2.75;;;31.40;76.50;;;;;;5033793;28;20081;-64
2022/08/04 11:48:47;;;;;;;8.93;2.90;;;31.40;75.20;;;;;;5033665;28;20109;-64
2022/08/04 11:51:15;;;;;;;9.88;2.80;;;31.40;75.10;;;;;;5033640;28;20045;-64
2022/08/04 11:53:42;;;;;;;12.05;3.47;;;31.10;75.70;;;;;;5033490;28;20454;-64
2022/08/04 11:56:13;;;;;;;12.25;2.65;;;30.90;75.30;;;;;;5032330;28;20044;-63
2022/08/04 11:58:39;;;;;;;11.38;2.70;;;30.70;74.10;;;;;;5033590;28;20034;-63
2022/08/04 12:01:22;;;;;;;9.40;2.42;;;30.40;74.50;;;;;;5033616;28;20485;-64
2022/08/04 12:04:15;;;;;;;6.75;2.60;;;30.20;75.40;;;;;;5033285;28;20093;-64
2022/08/04 12:06:51;;;;;;;10.05;2.40;;;30.00;75.90;;;;;;5033495;28;20061;-64
2022/08/04 12:09:43;;;;;;;9.60;2.70;;;29.90;77.10;;;;;;5015663;28;20041;-63
2022/08/04 12:12:31;;;;;;;12.45;2.40;;;29.70;77.40;;;;;;5031500;28;20083;-63
2022/08/04 12:15:19;;;;;;;7.25;2.72;;;29.60;78.40;;;;;;5031555;28;20076;-63
2022/08/04 12:18:17;;;;;;;10.20;2.53;;;29.50;79.30;;;;;;5032600;28;20069;-63
2022/08/04 12:20:49;;;;;;;18.02;2.72;;;29.40;79.50;;;;;;5032293;28;20049;-63
2022/08/04 12:23:25;;;;;;;7.78;2.53;;;29.40;80.60;;;;;;5032423;28;20116;-63
2022/08/04 12:25:57;;;;;;;10.80;2.90;;;29.30;80.90;;;;;;5032851;28;20048;-62
2022/08/04 12:28:32;;;;;;;16.85;2.75;;;29.20;81.90;;;;;;5033043;28;20076;-65
2022/08/04 12:31:40;;;;;;;10.18;2.35;;;29.10;82.40;;;;;;5033381;28;20116;-64
2022/08/04 12:34:21;;;;;;;7.90;2.50;;;29.00;82.50;;;;;;5019024;28;20132;-64
2022/08/04 12:37:17;;;;;;;8.07;2.63;;;28.70;83.80;;;;;;5033053;28;20037;-64
2022/08/04 12:39:47;;;;;;;6.80;2.45;;;28.50;84.80;;;;;;5033027;28;20041;-63
2022/08/04 12:42:21;;;;;;;9.00;2.58;;;28.30;85.70;;;;;;5033019;28;20056;-62
2022/08/04 12:44:53;;;;;;;9.50;2.55;;;28.10;86.50;;;;;;5032792;28;20045;-63
2022/08/04 12:47:24;;;;;;;9.38;2.30;;;27.90;89.20;;;;;;5033176;28;20037;-64
2022/08/04 12:49:51;;;;;;;7.13;2.20;;;27.80;90.80;;;;;;5033258;28;20041;-63
2022/08/04 12:52:19;;;;;;;16.83;2.80;;;27.60;92.70;;;;;;5036092;28;20045;-62
2022/08/04 12:54:50;;;;;;;9.40;2.80;;;27.50;96.30;;;;;;5037143;28;20046;-62
2022/08/04 12:57:17;;;;;;;10.25;2.90;;;27.30;99.80;;;;;;5036736;28;20041;-62
2022/08/04 12:59:43;;;;;;;10.38;2.40;;;27.00;99.90;;;;;;5037103;28;20052;-63
2022/08/04 13:02:16;;;;;;;11.40;2.60;;;26.90;99.90;;;;;;5036189;28;20045;-64
2022/08/04 13:04:43;;;;;;;7.90;2.72;;;26.70;99.90;;;;;;5019364;28;20050;-65
2022/08/04 13:07:15;;;;;;;9.02;3.03;;;26.50;99.90;;;;;;5036445;28;20385;-65
2022/08/04 13:09:42;;;;;;;6.15;2.72;;;26.40;99.90;;;;;;5036611;28;20037;-65
2022/08/04 13:12:16;;;;;;;7.78;2.70;;;26.30;99.90;;;;;;5036764;28;20041;-64
2022/08/04 13:14:43;;;;;;;5.57;2.20;;;26.30;99.90;;;;;;5036571;28;20045;-64
2022/08/04 13:17:10;;;;;;;10.82;2.20;;;26.30;99.90;;;;;;5036335;28;20121;-64
2022/08/04 13:19:37;;;;;;;4.85;2.28;;;26.30;99.90;;;;;;5036686;28;20151;-64
2022/08/04 13:22:03;;;;;;;5.45;2.17;;;26.00;99.90;;;;;;5036641;28;20440;-65
2022/08/04 13:24:31;;;;;;;10.32;2.47;;;26.20;99.90;;;;;;5036194;28;20448;-65
2022/08/04 13:27:02;;;;;;;5.93;2.50;;;26.30;99.90;;;;;;5036440;28;20446;-64
2022/08/04 13:29:37;;;;;;;6.32;2.30;;;26.40;99.90;;;;;;5036357;28;20034;-65
2022/08/04 13:32:04;;;;;;;8.32;2.22;;;26.70;99.90;;;;;;5036068;28;20049;-64
2022/08/04 13:34:32;;;;;;;5.65;2.58;;;26.90;99.90;;;;;;5036042;28;20053;-64